Kodiak, AK

6:40 PM AKDT on July 29, 2014 (GMT -0800)
Kodiak (PADQ) Elev 112 ft | 57.75 °N, 152.49 °W | Change Station

Current weather conditions updated 47 minutes ago

Clear
Clear
61 °F
Feels Like 61 °F
N
9
Wind Variable Wind from East

Tomorrow is forecast to be nearly the same temperature as today. Showers possible in the afternoon.

Today
High -- | Low -- °F
--% Chance of Precip.
Yesterday
High -- | Low -- °F
Precip. -- in
5:59 AM 10:32 PM
Waxing Crescent, 9% visible
Pressure 29.99 in
Visibility 10.0 miles
Clouds Clear
Dew Point 55 °F
Humidity 81%
Rainfall 0.30 in
Snow Depth Not available.
UV 4 out of 12
Pollen Not available.
Air Quality Not available.
Flu Activity Not available.
METAR PADQ 300153Z 08008KT 10SM CLR 16/13 A2998 RMK AO2 SLP153 T01610128

More Conditions Fewer Conditions

Pressure 29.99 in
Visibility 10.0 miles
Clouds Clear
Dew Point 55 °F
Humidity 81%
Rainfall 0.30 in
Snow Depth Not available.
UV 4 out of 12
Pollen Not available.
Air Quality Not available.
Flu Activity Not available.
METAR PADQ 300153Z 08008KT 10SM CLR 16/13 A2998 RMK AO2 SLP153 T01610128

More Conditions Fewer Conditions

10-Day Weather Forecast

Almanac

Astronomy

Jul. 29, 2014 Rise Set
Actual Time 5:59 AM AKDT 10:32 PM AKDT
Civil Twilight 5:04 AM AKDT 11:26 PM AKDT
Nautical Twilight 3:30 AM AKDT 12:57 AM AKDT
Astronomical Twilight Sun does not rise Sun does not rise
Moon 9:34 AM AKDT (7/29) 10:55 PM AKDT (7/29)
Length of Visible Light 18h 21m
Length of Day
16h 33m
Tomorrow will be 4m 8s shorter.
Waxing Crescent, 9% of the Moon is Illuminated
Today
Waxing Crescent
Aug 3
First Quarter
Aug 10
Full
Aug 17
Last Quarter
Aug 25
New

Today's Extremes

State Highs State Lows

Community

WunderPhotos

Upload Photos

1,738,977 photos uploaded!

Nearby

Snow Depth

Station Depth Elevation
Mcneil Canyon 1 in 1320 ft
MF Bradley River 212 in 2300 ft
Cooper Lake 19 in 1200 ft
Grandview 2 in 1100 ft
Turnagain Pass 0 in 1880 ft

Earthquake Activity

City Distance Mag. Time & Date
No recent earthquake activity has been reported nearby.
Minimum magnitude displayed is 2.5.

Coastal Water Temperatures

Place Temperature
No Stations Reporting

Nearby Weather Stations

Station Location Temp. Dew Point Humidity Wind Precip. Elev Updated Type
Bob Plyler on Selief Lane, Kodiak, AK 68.2 °F 41 °F 37% ESE  at  5.8 mph 0.00 in / hr 115 ft 6:40 PM AKDT Rapid Fire
AKDOT Pasagshak Road Kodiak @ MP 2.1, Kodiak, AK 62 °F 50 °F 63% NNE  at  8 mph 0.00 in / hr 380 ft 5:51 PM AKDT MADIS
Pillar Mountain, Kodiak, AK 55.9 °F 51 °F 84% NNW  at  6.8 mph - / hr 1204 ft 6:35 PM AKDT Normal

Show More Stations Show Fewer Stations